Terminal Aerodrome Forecast
Issued by NWS Sioux Falls, SD

Home | Current Version | Previous Version | Graphics & Text | Print | Product List | Glossary On
Versions: 1 2 3 4 5 6 7 8 9 10 11 12 13 14 15 16
000
FTUS43 KFSD 042322
TAFHON
TAF
KHON 042322Z 0500/0524 16014G20KT P6SM SCT150
     FM050100 15012KT P6SM SCT120
     FM050700 15011KT P6SM BKN080
     FM051500 17014G20KT P6SM FEW060
     FM052000 17014G20KT P6SM BKN050=

USA.gov is the U.S. government's official web portal to all federal, state and local government web resources and services.